createdAt,value
2022-09-09T00:03:03.113Z,104.83551
2022-09-09T00:08:04.666Z,102.76289
2022-09-09T00:13:06.469Z,100.743
2022-09-09T00:18:08.461Z,99.94937
2022-09-09T00:23:10.312Z,99.55556
2022-09-09T00:28:12.170Z,101.14286
2022-09-09T00:33:14.606Z,102.35476
2022-09-09T00:38:16.454Z,103.58549
2022-09-09T00:43:18.397Z,104
2022-09-09T00:48:20.439Z,108.26667
2022-09-09T00:53:22.259Z,110.48649
2022-09-09T00:58:24.103Z,112.76712
2022-09-09T01:03:25.880Z,119
2022-09-09T01:08:27.278Z,117.03371
2022-09-09T01:13:28.928Z,114.63712
2022-09-09T01:18:30.818Z,114.16575
2022-09-09T01:23:32.465Z,113.23077
2022-09-09T01:28:34.444Z,112.76712
2022-09-09T01:33:36.671Z,113.23077
2022-09-09T01:38:38.104Z,111.84741
2022-09-09T01:43:39.845Z,111.84741
2022-09-09T01:48:42.065Z,110.93767
2022-09-09T01:53:43.925Z,111.84741
2022-09-09T01:58:45.362Z,110.93767
2022-09-09T02:03:47.176Z,110.48649
2022-09-09T02:08:48.704Z,108.26667
2022-09-09T02:13:50.335Z,106.96296
2022-09-09T02:18:51.735Z,105.25654
2022-09-09T02:23:53.430Z,104
2022-09-09T02:28:54.965Z,101.14286
2022-09-09T02:33:57.007Z,101.14286
2022-09-09T02:38:58.624Z,101.14286
2022-09-09T02:44:00.091Z,101.54476
2022-09-09T02:49:01.790Z,101.54476
2022-09-09T02:54:03.305Z,101.14286
2022-09-09T02:59:04.895Z,100.34518
2022-09-09T03:09:17.422Z,104
2022-09-09T03:14:19.299Z,106.96296
2022-09-09T03:19:21.062Z,110.03774
2022-09-09T03:24:22.487Z,108.70588
2022-09-09T03:29:24.011Z,109.14745
2022-09-09T03:34:25.599Z,109.14745
2022-09-09T03:39:27.453Z,110.93767
2022-09-09T03:44:28.929Z,109.5914
2022-09-09T03:49:30.599Z,111.3913
2022-09-09T03:54:32.484Z,110.93767
2022-09-09T03:59:34.255Z,112.30601
2022-09-09T04:04:36.017Z,114.16575
2022-09-09T04:09:38.170Z,117.03371
2022-09-09T04:14:40.024Z,114.63712
2022-09-09T04:19:41.869Z,119
2022-09-09T04:24:48.174Z,117.03371
2022-09-09T04:29:50.753Z,121.01149
2022-09-09T04:34:52.654Z,117.52113
2022-09-09T04:39:54.784Z,112.30601
2022-09-09T04:44:56.677Z,113.69697
2022-09-09T04:49:58.462Z,113.69697
2022-09-09T04:55:00.267Z,111.3913
2022-09-09T05:00:02.014Z,111.84741
2022-09-09T05:05:04.079Z,111.84741
2022-09-09T05:10:06.865Z,114.63712
2022-09-09T05:15:08.615Z,114.63712
2022-09-09T05:20:14.490Z,113.23077
2022-09-09T05:25:18.864Z,114.16575
2022-09-09T05:30:20.606Z,111.3913
2022-09-09T05:35:22.058Z,110.48649
2022-09-09T05:40:24.335Z,121.52161
2022-09-09T05:45:25.761Z,127.33333
2022-09-09T05:50:31.445Z,120
2022-09-09T05:55:33.233Z,135.90031
2022-09-09T06:00:34.735Z,157.14879
2022-09-09T06:05:36.205Z,186.51969
2022-09-09T06:10:38.288Z,189.41833
2022-09-09T06:15:39.961Z,224
2022-09-09T06:20:41.726Z,258.28571
2022-09-09T06:25:43.524Z,230.51163
2022-09-09T06:30:45.320Z,255.11111
2022-09-09T06:35:47.253Z,302.13953
2022-09-09T06:40:49.207Z,344
2022-09-09T06:45:51.162Z,349.26316
2022-09-09T06:50:52.983Z,429.03937
2022-09-09T06:55:54.801Z,461.64706
2022-09-09T07:00:56.632Z,466.0339
2022-09-09T07:05:58.427Z,494
2022-09-09T07:11:00.603Z,553.90099
2022-09-09T07:16:02.323Z,572.57143
2022-09-09T07:21:03.999Z,461.64706
2022-09-09T07:26:05.785Z,457.33333
2022-09-09T07:31:07.560Z,489.13274
2022-09-09T07:36:09.669Z,599.31915
2022-09-09T07:41:11.536Z,489.13274
2022-09-09T07:46:13.485Z,530.66667
2022-09-09T07:51:15.325Z,440.77419
2022-09-09T07:56:17.182Z,585.66667
2022-09-09T08:01:19.241Z,579.05155
2022-09-09T08:06:21.068Z,553.90099
2022-09-09T08:11:22.732Z,560
2022-09-09T08:16:24.210Z,652.04598
2022-09-09T08:21:25.896Z,660.27907
2022-09-09T08:26:27.509Z,695.21951
2022-09-09T08:31:28.956Z,799.55556
2022-09-09T08:36:30.482Z,824
2022-09-09T08:41:32.135Z,1006.06897
2022-09-09T08:46:34.034Z,891.69231
2022-09-09T08:51:35.739Z,1084.74074
2022-09-09T08:56:37.313Z,921.77778
2022-09-09T09:01:38.819Z,988.0678
2022-09-09T09:06:40.295Z,1344
2022-09-09T09:11:42.209Z,1227.33333
2022-09-09T09:16:43.752Z,921.77778
2022-09-09T09:21:45.278Z,1254.6383
2022-09-09T09:26:46.954Z,1084.74074
2022-09-09T09:31:48.438Z,1283.13043
2022-09-09T09:36:50.392Z,1565.05263
2022-09-09T09:41:52.220Z,1484
2022-09-09T09:46:53.714Z,1176
2022-09-09T09:51:55.317Z,1869
2022-09-09T09:56:57.086Z,1608.86486
2022-09-09T10:01:58.577Z,1608.86486
2022-09-09T10:07:00.373Z,1655.11111
2022-09-09T10:12:02.077Z,1655.11111
2022-09-09T10:17:04.013Z,1608.86486
2022-09-09T10:22:05.915Z,1869
2022-09-09T10:27:07.761Z,2144
2022-09-09T10:32:09.531Z,1655.11111
2022-09-09T10:37:11.313Z,2225.48148
2022-09-09T10:42:13.779Z,1931.09677
2022-09-09T10:47:15.528Z,1931.09677
2022-09-09T10:52:16.986Z,1931.09677
2022-09-09T10:57:18.662Z,2510.66667
2022-09-09T11:02:20.125Z,1931.09677
2022-09-09T11:07:21.696Z,2225.48148
2022-09-09T11:12:23.373Z,2225.48148
2022-09-09T11:17:24.850Z,1997.33333
2022-09-09T11:22:26.540Z,1869
2022-09-09T11:27:28.378Z,1869
2022-09-09T11:32:29.810Z,1704
2022-09-09T11:37:31.623Z,1931.09677
2022-09-09T11:42:33.629Z,2068.13793
2022-09-09T11:47:35.503Z,1655.11111
2022-09-09T11:52:37.436Z,2313.23077
2022-09-09T11:57:39.541Z,2068.13793
2022-09-09T12:02:41.477Z,2408
2022-09-09T12:07:43.380Z,2144
2022-09-09T12:12:45.484Z,2510.66667
2022-09-09T12:17:47.564Z,1997.33333
2022-09-09T12:22:49.480Z,2877.33333
2022-09-09T12:27:51.342Z,3366.22222
2022-09-09T12:32:53.393Z,3024
2022-09-09T12:37:55.281Z,2877.33333
2022-09-09T12:42:57.720Z,2744
2022-09-09T12:47:59.484Z,1931.09677
2022-09-09T12:53:01.280Z,2744
2022-09-09T12:58:03.066Z,2225.48148
2022-09-09T13:03:04.828Z,2622.26087
2022-09-09T13:08:06.761Z,2877.33333
2022-09-09T13:13:09.041Z,2313.23077
2022-09-09T13:18:10.921Z,2510.66667
2022-09-09T13:23:12.774Z,2313.23077
2022-09-09T13:28:14.690Z,2408
2022-09-09T13:33:16.538Z,2744
2022-09-09T13:38:18.497Z,3186.10526
2022-09-09T13:43:20.878Z,3366.22222
2022-09-09T13:48:22.662Z,2744
2022-09-09T13:53:24.309Z,3186.10526
2022-09-09T13:58:25.860Z,2510.66667
2022-09-09T14:03:27.412Z,2510.66667
2022-09-09T14:08:29.197Z,2510.66667
2022-09-09T14:13:31.017Z,2068.13793
2022-09-09T14:18:32.702Z,1755.76471
2022-09-09T14:23:34.248Z,1704
2022-09-09T14:28:55.222Z,1869
2022-09-09T14:33:57.800Z,1344
2022-09-09T14:38:59.618Z,1128.61538
2022-09-09T14:44:01.671Z,1227.33333
2022-09-09T14:49:03.354Z,1344
2022-09-09T14:54:05.149Z,1755.76471
2022-09-09T14:59:06.835Z,2068.13793
2022-09-09T15:04:08.490Z,970.66667
2022-09-09T15:09:10.467Z,877.33333
2022-09-09T15:14:12.464Z,891.69231
2022-09-09T15:19:14.110Z,636.13483
2022-09-09T15:24:15.902Z,906.5
2022-09-09T15:29:17.793Z,836.75362
2022-09-09T15:34:19.648Z,1024.70175
2022-09-09T15:39:21.401Z,906.5
2022-09-09T15:44:23.435Z,547.92157
2022-09-09T15:49:25.150Z,421.51938
2022-09-09T15:54:26.600Z,453.09091
2022-09-09T15:59:28.345Z,429.03937
2022-09-09T16:04:29.919Z,384
2022-09-09T16:09:31.468Z,393.63504
2022-09-09T16:14:33.162Z,448.91803
2022-09-09T16:19:34.709Z,371.77778
2022-09-09T16:24:36.215Z,396.94118
2022-09-09T16:29:37.800Z,387.16547
2022-09-09T16:34:39.247Z,357.42282
2022-09-09T16:39:40.829Z,312.86228
2022-09-09T16:44:42.535Z,294
2022-09-09T16:49:44.143Z,329
2022-09-09T16:54:45.596Z,374.76923
2022-09-09T16:59:47.154Z,396.94118
2022-09-09T17:04:48.604Z,403.70149
2022-09-09T17:09:50.331Z,360.21622
2022-09-09T17:14:52.528Z,312.86228
2022-09-09T17:19:53.954Z,319.60976
2022-09-09T17:24:55.797Z,326.6087
2022-09-09T17:29:59.159Z,354.66667
2022-09-09T17:35:00.628Z,363.04762
2022-09-09T17:40:02.474Z,360.21622
2022-09-09T17:45:05.358Z,374.76923
2022-09-09T17:50:07.061Z,286.22222
2022-09-09T17:55:09.274Z,276.97297
2022-09-09T18:00:11.815Z,247.44828
2022-09-09T18:05:13.507Z,243.02913
2022-09-09T18:10:15.076Z,234.56604
2022-09-09T18:15:28.248Z,226.56881
2022-09-09T18:20:41.712Z,233.20188
2022-09-09T18:25:43.371Z,211.82609
2022-09-09T18:30:45.371Z,219
2022-09-09T18:35:47.155Z,216.56637
2022-09-09T18:40:48.801Z,252
2022-09-09T18:45:50.920Z,273.41176
2022-09-09T18:50:52.726Z,286.22222
2022-09-09T18:55:54.239Z,271.65957
2022-09-09T19:00:56.093Z,255.11111
2022-09-09T19:05:57.917Z,217.77778
2022-09-09T19:10:59.648Z,215.36564
2022-09-09T19:16:01.771Z,208.37768
2022-09-09T19:21:03.687Z,206.12766
2022-09-09T19:26:05.576Z,215.36564
2022-09-09T19:31:07.493Z,186.51969
2022-09-09T19:36:09.332Z,184.625
2022-09-09T19:41:11.010Z,182.75969
2022-09-09T19:46:13.185Z,192.3871
2022-09-09T19:51:14.981Z,201.74059
2022-09-09T19:56:16.745Z,205.01695
2022-09-09T20:01:18.315Z,207.24786
2022-09-09T20:06:20.129Z,200.66667
2022-09-09T20:11:21.993Z,192.3871
2022-09-09T20:16:24.373Z,191.38956
2022-09-09T20:21:26.211Z,183.68872
2022-09-09T20:26:27.637Z,177.33333
2022-09-09T20:31:29.424Z,167.18841
2022-09-09T20:36:30.880Z,161.66784
2022-09-09T20:41:32.447Z,157.88889
2022-09-09T20:46:36.191Z,163.21708
2022-09-09T20:51:37.680Z,166.38267
2022-09-09T20:56:39.154Z,174.71161
2022-09-09T21:01:41.260Z,172.14815
2022-09-09T21:06:42.986Z,186.51969
2022-09-09T21:11:44.561Z,194.4065
2022-09-09T21:16:46.318Z,181.83784
2022-09-09T21:21:48.033Z,176.45283
2022-09-09T21:26:49.527Z,171.30627
2022-09-09T21:31:51.077Z,169.64103
2022-09-09T21:36:53.299Z,167.18841
2022-09-09T21:41:56.167Z,172.99628
2022-09-09T21:46:58.691Z,163.21708
2022-09-09T21:52:00.141Z,156.41379
2022-09-09T21:57:01.659Z,148.65116
2022-09-09T22:02:03.854Z,142.70968
2022-09-09T22:07:05.537Z,130.66667
2022-09-09T22:12:07.089Z,121.01149
2022-09-09T22:17:09.049Z,115.58774
2022-09-09T22:22:10.800Z,114.16575
2022-09-09T22:27:12.242Z,114.63712
2022-09-09T22:32:13.698Z,116.06704
2022-09-09T22:37:15.145Z,116.06704
2022-09-09T22:42:16.658Z,115.58774
2022-09-09T22:47:18.899Z,116.06704
2022-09-09T22:52:20.867Z,118.0113
2022-09-09T22:57:22.329Z,120
2022-09-09T23:02:23.785Z,119
2022-09-09T23:07:25.386Z,119.49858
2022-09-09T23:12:27.109Z,128.43114
2022-09-09T23:17:29.233Z,131.23404
2022-09-09T23:22:30.884Z,130.66667
2022-09-09T23:27:32.577Z,152.81356
2022-09-09T23:32:34.646Z,157.88889
2022-09-09T23:37:36.358Z,148.65116
2022-09-09T23:42:38.102Z,157.88889
2022-09-09T23:47:40.176Z,155.68385
2022-09-09T23:52:42.155Z,170.47059
2022-09-09T23:57:43.692Z,191.38956
